sensor_id;sensor_type;location;lat;lon;timestamp;pressure;altitude;pressure_sealevel;temperature;humidity
33153;BME280;19509;43.862;26.176;2023-07-09T00:01:53;100933.41;;;15.41;88.90
33153;BME280;19509;43.862;26.176;2023-07-09T00:04:19;100936.97;;;15.53;88.95
33153;BME280;19509;43.862;26.176;2023-07-09T00:06:45;100926.22;;;15.47;88.87
33153;BME280;19509;43.862;26.176;2023-07-09T00:09:18;100937.06;;;15.47;88.92
33153;BME280;19509;43.862;26.176;2023-07-09T00:11:45;100934.09;;;15.48;88.30
33153;BME280;19509;43.862;26.176;2023-07-09T00:14:12;100944.00;;;15.31;88.42
33153;BME280;19509;43.862;26.176;2023-07-09T00:16:39;100940.19;;;15.20;88.00
33153;BME280;19509;43.862;26.176;2023-07-09T00:19:11;100940.66;;;15.17;88.95
33153;BME280;19509;43.862;26.176;2023-07-09T00:21:39;100941.59;;;15.11;89.15
33153;BME280;19509;43.862;26.176;2023-07-09T00:24:06;100937.22;;;15.10;89.71
33153;BME280;19509;43.862;26.176;2023-07-09T00:26:32;100942.53;;;15.05;89.90
33153;BME280;19509;43.862;26.176;2023-07-09T00:28:59;100931.09;;;15.14;89.41
33153;BME280;19509;43.862;26.176;2023-07-09T00:31:25;100930.75;;;15.11;89.56
33153;BME280;19509;43.862;26.176;2023-07-09T00:33:51;100928.38;;;15.14;89.13
33153;BME280;19509;43.862;26.176;2023-07-09T00:36:28;100938.41;;;15.14;88.93
33153;BME280;19509;43.862;26.176;2023-07-09T00:38:57;100934.88;;;15.13;89.08
33153;BME280;19509;43.862;26.176;2023-07-09T00:41:25;100937.00;;;15.11;88.74
33153;BME280;19509;43.862;26.176;2023-07-09T00:43:52;100935.22;;;15.05;89.12
33153;BME280;19509;43.862;26.176;2023-07-09T00:48:50;100933.09;;;15.07;88.88
33153;BME280;19509;43.862;26.176;2023-07-09T00:51:19;100934.25;;;15.00;88.86
33153;BME280;19509;43.862;26.176;2023-07-09T00:53:46;100942.63;;;14.98;89.34
33153;BME280;19509;43.862;26.176;2023-07-09T00:56:16;100939.22;;;15.03;88.73
33153;BME280;19509;43.862;26.176;2023-07-09T00:58:45;100945.47;;;15.03;89.13
33153;BME280;19509;43.862;26.176;2023-07-09T01:01:16;100937.31;;;14.92;89.21
33153;BME280;19509;43.862;26.176;2023-07-09T01:03:53;100935.06;;;14.88;89.54
33153;BME280;19509;43.862;26.176;2023-07-09T01:06:31;100935.16;;;14.94;89.29
33153;BME280;19509;43.862;26.176;2023-07-09T01:08:58;100940.47;;;14.88;90.00
33153;BME280;19509;43.862;26.176;2023-07-09T01:11:26;100936.00;;;14.94;89.59
33153;BME280;19509;43.862;26.176;2023-07-09T01:13:54;100942.03;;;14.96;89.39
33153;BME280;19509;43.862;26.176;2023-07-09T01:16:21;100944.00;;;14.89;89.79
33153;BME280;19509;43.862;26.176;2023-07-09T01:18:50;100941.19;;;14.96;89.67
33153;BME280;19509;43.862;26.176;2023-07-09T01:21:16;100937.97;;;14.87;89.49
33153;BME280;19509;43.862;26.176;2023-07-09T01:23:43;100935.16;;;14.82;89.43
33153;BME280;19509;43.862;26.176;2023-07-09T01:26:16;100937.59;;;14.83;89.29
33153;BME280;19509;43.862;26.176;2023-07-09T01:28:42;100943.19;;;14.70;89.70
33153;BME280;19509;43.862;26.176;2023-07-09T01:31:13;100946.28;;;14.74;90.23
33153;BME280;19509;43.862;26.176;2023-07-09T01:33:41;100942.22;;;14.83;89.65
33153;BME280;19509;43.862;26.176;2023-07-09T01:36:11;100940.66;;;14.75;89.30
33153;BME280;19509;43.862;26.176;2023-07-09T01:38:39;100939.00;;;14.74;89.19
33153;BME280;19509;43.862;26.176;2023-07-09T01:41:05;100941.31;;;14.71;89.28
33153;BME280;19509;43.862;26.176;2023-07-09T01:43:33;100952.31;;;14.76;89.42
33153;BME280;19509;43.862;26.176;2023-07-09T01:45:59;100953.59;;;14.73;89.72
33153;BME280;19509;43.862;26.176;2023-07-09T01:48:26;100958.09;;;14.79;89.50
33153;BME280;19509;43.862;26.176;2023-07-09T01:50:52;100962.50;;;14.62;89.17
33153;BME280;19509;43.862;26.176;2023-07-09T01:53:22;100961.97;;;14.72;89.18
33153;BME280;19509;43.862;26.176;2023-07-09T01:55:49;100969.34;;;14.64;89.80
33153;BME280;19509;43.862;26.176;2023-07-09T01:58:16;100971.00;;;14.65;89.56
33153;BME280;19509;43.862;26.176;2023-07-09T02:00:42;100974.88;;;14.70;89.14
33153;BME280;19509;43.862;26.176;2023-07-09T02:03:08;100966.31;;;14.73;89.05
33153;BME280;19509;43.862;26.176;2023-07-09T02:05:35;100974.34;;;14.79;88.81
33153;BME280;19509;43.862;26.176;2023-07-09T02:08:01;100982.34;;;14.74;86.73
33153;BME280;19509;43.862;26.176;2023-07-09T02:10:27;100983.94;;;14.27;88.95
33153;BME280;19509;43.862;26.176;2023-07-09T02:12:53;100981.44;;;14.25;90.23
33153;BME280;19509;43.862;26.176;2023-07-09T02:15:18;100987.59;;;14.32;90.54
33153;BME280;19509;43.862;26.176;2023-07-09T02:17:44;100994.88;;;14.13;90.23
33153;BME280;19509;43.862;26.176;2023-07-09T02:20:10;100996.97;;;14.11;90.39
33153;BME280;19509;43.862;26.176;2023-07-09T02:22:38;100999.94;;;14.10;90.97
33153;BME280;19509;43.862;26.176;2023-07-09T02:25:04;101001.25;;;14.19;90.58
33153;BME280;19509;43.862;26.176;2023-07-09T02:27:31;101008.94;;;14.22;90.40
33153;BME280;19509;43.862;26.176;2023-07-09T02:29:57;101002.16;;;14.13;91.56
33153;BME280;19509;43.862;26.176;2023-07-09T02:32:25;101004.22;;;14.17;90.27
33153;BME280;19509;43.862;26.176;2023-07-09T02:34:54;101013.47;;;14.10;90.89
33153;BME280;19509;43.862;26.176;2023-07-09T02:37:25;101008.25;;;14.08;90.99
33153;BME280;19509;43.862;26.176;2023-07-09T02:39:51;101018.94;;;14.22;91.02
33153;BME280;19509;43.862;26.176;2023-07-09T02:42:19;101015.34;;;14.28;89.59
33153;BME280;19509;43.862;26.176;2023-07-09T02:44:45;101017.38;;;14.14;89.10
33153;BME280;19509;43.862;26.176;2023-07-09T02:47:12;101020.78;;;14.03;90.39
33153;BME280;19509;43.862;26.176;2023-07-09T02:49:37;101019.91;;;14.09;90.81
33153;BME280;19509;43.862;26.176;2023-07-09T02:52:04;101024.94;;;14.05;90.64
33153;BME280;19509;43.862;26.176;2023-07-09T02:54:30;101021.41;;;14.05;89.80
33153;BME280;19509;43.862;26.176;2023-07-09T02:56:55;101023.78;;;13.94;89.47
33153;BME280;19509;43.862;26.176;2023-07-09T02:59:21;101027.16;;;13.90;89.53
33153;BME280;19509;43.862;26.176;2023-07-09T03:01:47;101022.97;;;13.94;90.24
33153;BME280;19509;43.862;26.176;2023-07-09T03:04:13;101023.16;;;13.92;91.04
33153;BME280;19509;43.862;26.176;2023-07-09T03:06:39;101029.56;;;13.98;90.16
33153;BME280;19509;43.862;26.176;2023-07-09T03:09:06;101026.72;;;13.93;89.32
33153;BME280;19509;43.862;26.176;2023-07-09T03:11:33;101019.53;;;13.80;89.38
33153;BME280;19509;43.862;26.176;2023-07-09T03:14:00;101027.53;;;13.68;89.94
33153;BME280;19509;43.862;26.176;2023-07-09T03:16:27;101023.56;;;13.71;90.48
33153;BME280;19509;43.862;26.176;2023-07-09T03:18:53;101019.94;;;13.84;91.27
33153;BME280;19509;43.862;26.176;2023-07-09T03:21:20;101022.78;;;14.14;90.83
33153;BME280;19509;43.862;26.176;2023-07-09T03:23:45;101025.56;;;14.26;90.74
33153;BME280;19509;43.862;26.176;2023-07-09T03:26:11;101029.50;;;14.48;89.95
33153;BME280;19509;43.862;26.176;2023-07-09T03:28:38;101029.00;;;14.58;90.06
33153;BME280;19509;43.862;26.176;2023-07-09T03:31:03;101030.44;;;14.79;88.65
33153;BME280;19509;43.862;26.176;2023-07-09T03:33:29;101032.81;;;14.87;88.08
33153;BME280;19509;43.862;26.176;2023-07-09T03:35:55;101033.34;;;14.96;88.05
33153;BME280;19509;43.862;26.176;2023-07-09T03:38:21;101035.19;;;15.13;87.17
33153;BME280;19509;43.862;26.176;2023-07-09T03:40:53;101037.69;;;15.15;87.49
33153;BME280;19509;43.862;26.176;2023-07-09T03:43:19;101035.34;;;15.19;86.75
33153;BME280;19509;43.862;26.176;2023-07-09T03:45:45;101039.59;;;15.26;86.93
33153;BME280;19509;43.862;26.176;2023-07-09T03:48:11;101050.97;;;15.47;85.84
33153;BME280;19509;43.862;26.176;2023-07-09T03:50:37;101043.84;;;15.64;85.21
33153;BME280;19509;43.862;26.176;2023-07-09T03:53:03;101040.94;;;15.77;84.44
33153;BME280;19509;43.862;26.176;2023-07-09T03:55:28;101041.19;;;15.88;84.12
33153;BME280;19509;43.862;26.176;2023-07-09T03:57:55;101045.22;;;15.97;83.75
33153;BME280;19509;43.862;26.176;2023-07-09T04:00:20;101042.84;;;16.12;83.44
33153;BME280;19509;43.862;26.176;2023-07-09T04:02:46;101041.19;;;16.23;83.17
33153;BME280;19509;43.862;26.176;2023-07-09T04:05:12;101033.97;;;16.40;82.67
33153;BME280;19509;43.862;26.176;2023-07-09T04:07:38;101039.84;;;16.72;81.85
33153;BME280;19509;43.862;26.176;2023-07-09T04:10:05;101030.53;;;17.37;78.74
33153;BME280;19509;43.862;26.176;2023-07-09T04:12:30;101038.78;;;17.59;77.73
33153;BME280;19509;43.862;26.176;2023-07-09T04:14:56;101044.03;;;17.49;78.44
33153;BME280;19509;43.862;26.176;2023-07-09T04:17:21;101036.41;;;17.46;79.66
33153;BME280;19509;43.862;26.176;2023-07-09T04:19:49;101040.50;;;17.48;79.87
33153;BME280;19509;43.862;26.176;2023-07-09T04:22:14;101037.94;;;17.42;79.87
33153;BME280;19509;43.862;26.176;2023-07-09T04:24:40;101037.38;;;17.40;80.17
33153;BME280;19509;43.862;26.176;2023-07-09T04:27:06;101037.22;;;17.46;80.65
33153;BME280;19509;43.862;26.176;2023-07-09T04:29:33;101034.75;;;17.62;79.95
33153;BME280;19509;43.862;26.176;2023-07-09T04:32:04;101034.31;;;17.82;79.55
33153;BME280;19509;43.862;26.176;2023-07-09T04:34:30;101031.00;;;17.80;79.27
33153;BME280;19509;43.862;26.176;2023-07-09T04:36:56;101033.66;;;17.91;79.62
33153;BME280;19509;43.862;26.176;2023-07-09T04:39:21;101029.34;;;17.95;80.69
33153;BME280;19509;43.862;26.176;2023-07-09T04:41:47;101029.50;;;18.06;80.89
33153;BME280;19509;43.862;26.176;2023-07-09T04:44:13;101033.03;;;18.23;80.68
33153;BME280;19509;43.862;26.176;2023-07-09T04:46:39;101031.22;;;18.51;80.13
33153;BME280;19509;43.862;26.176;2023-07-09T04:49:05;101031.03;;;18.57;80.24
33153;BME280;19509;43.862;26.176;2023-07-09T04:51:30;101032.69;;;18.75;80.18
33153;BME280;19509;43.862;26.176;2023-07-09T04:53:57;101033.97;;;18.95;78.97
33153;BME280;19509;43.862;26.176;2023-07-09T04:56:22;101030.81;;;19.03;78.94
33153;BME280;19509;43.862;26.176;2023-07-09T04:58:48;101028.25;;;19.18;78.71
33153;BME280;19509;43.862;26.176;2023-07-09T05:01:14;101035.88;;;19.43;78.34
33153;BME280;19509;43.862;26.176;2023-07-09T05:03:39;101032.38;;;19.48;77.88
33153;BME280;19509;43.862;26.176;2023-07-09T05:06:05;101033.16;;;19.70;77.33
33153;BME280;19509;43.862;26.176;2023-07-09T05:08:30;101042.94;;;19.98;76.72
33153;BME280;19509;43.862;26.176;2023-07-09T05:10:57;101026.91;;;20.12;76.60
33153;BME280;19509;43.862;26.176;2023-07-09T05:13:23;101033.31;;;20.28;75.43
33153;BME280;19509;43.862;26.176;2023-07-09T05:15:49;101025.78;;;20.50;74.81
33153;BME280;19509;43.862;26.176;2023-07-09T05:18:16;101030.00;;;20.73;74.27
33153;BME280;19509;43.862;26.176;2023-07-09T05:20:43;101025.41;;;20.89;73.12
33153;BME280;19509;43.862;26.176;2023-07-09T05:23:10;101023.00;;;21.08;73.12
33153;BME280;19509;43.862;26.176;2023-07-09T05:25:36;101030.22;;;21.45;72.41
33153;BME280;19509;43.862;26.176;2023-07-09T05:28:02;101026.38;;;21.66;71.76
33153;BME280;19509;43.862;26.176;2023-07-09T05:30:28;101036.50;;;21.96;70.18
33153;BME280;19509;43.862;26.176;2023-07-09T05:32:53;101027.91;;;22.59;68.41
33153;BME280;19509;43.862;26.176;2023-07-09T05:35:21;101033.63;;;22.68;68.13
33153;BME280;19509;43.862;26.176;2023-07-09T05:37:47;101035.06;;;22.45;58.09
33153;BME280;19509;43.862;26.176;2023-07-09T05:40:12;101029.59;;;22.45;55.83
33153;BME280;19509;43.862;26.176;2023-07-09T05:42:38;101030.44;;;22.46;56.40
33153;BME280;19509;43.862;26.176;2023-07-09T05:45:04;101027.69;;;22.46;55.13
33153;BME280;19509;43.862;26.176;2023-07-09T05:47:30;101027.34;;;22.57;52.81
33153;BME280;19509;43.862;26.176;2023-07-09T05:49:55;101024.88;;;22.61;53.59
33153;BME280;19509;43.862;26.176;2023-07-09T05:52:22;101030.34;;;22.66;52.40
33153;BME280;19509;43.862;26.176;2023-07-09T05:54:49;101030.06;;;22.73;55.24
33153;BME280;19509;43.862;26.176;2023-07-09T05:57:16;101031.13;;;22.77;54.70
33153;BME280;19509;43.862;26.176;2023-07-09T05:59:41;101024.78;;;22.86;50.60
33153;BME280;19509;43.862;26.176;2023-07-09T06:02:10;101027.84;;;22.80;50.12
33153;BME280;19509;43.862;26.176;2023-07-09T06:04:36;101015.69;;;22.86;51.93
33153;BME280;19509;43.862;26.176;2023-07-09T06:07:02;101011.59;;;22.88;51.14
33153;BME280;19509;43.862;26.176;2023-07-09T06:09:29;101017.84;;;23.04;51.72
33153;BME280;19509;43.862;26.176;2023-07-09T06:11:55;101015.41;;;22.98;52.04
33153;BME280;19509;43.862;26.176;2023-07-09T06:14:20;101014.00;;;23.05;51.23
33153;BME280;19509;43.862;26.176;2023-07-09T06:16:46;101014.44;;;23.23;52.62
33153;BME280;19509;43.862;26.176;2023-07-09T06:19:12;101019.34;;;23.31;49.38
33153;BME280;19509;43.862;26.176;2023-07-09T06:21:38;101020.16;;;23.26;48.57
33153;BME280;19509;43.862;26.176;2023-07-09T06:24:05;101019.34;;;23.26;50.98
33153;BME280;19509;43.862;26.176;2023-07-09T06:26:31;101017.34;;;23.36;49.42
33153;BME280;19509;43.862;26.176;2023-07-09T06:28:57;101013.44;;;23.48;51.50
33153;BME280;19509;43.862;26.176;2023-07-09T06:31:22;101021.63;;;23.53;47.85
33153;BME280;19509;43.862;26.176;2023-07-09T06:33:50;101021.13;;;23.51;48.26
33153;BME280;19509;43.862;26.176;2023-07-09T06:36:16;101030.84;;;23.72;46.97
33153;BME280;19509;43.862;26.176;2023-07-09T06:38:42;101021.06;;;23.56;45.10
33153;BME280;19509;43.862;26.176;2023-07-09T06:41:08;101017.19;;;23.62;47.99
33153;BME280;19509;43.862;26.176;2023-07-09T06:43:34;101018.00;;;23.63;46.37
33153;BME280;19509;43.862;26.176;2023-07-09T06:46:00;101014.13;;;23.64;47.20
33153;BME280;19509;43.862;26.176;2023-07-09T06:48:27;101014.03;;;23.79;48.42
33153;BME280;19509;43.862;26.176;2023-07-09T06:50:55;101010.41;;;23.83;48.14
33153;BME280;19509;43.862;26.176;2023-07-09T06:53:22;101015.53;;;23.95;48.31
33153;BME280;19509;43.862;26.176;2023-07-09T06:55:47;101011.00;;;24.10;48.68
33153;BME280;19509;43.862;26.176;2023-07-09T06:58:18;101022.44;;;24.22;50.75
33153;BME280;19509;43.862;26.176;2023-07-09T07:00:45;101019.19;;;24.15;49.94
33153;BME280;19509;43.862;26.176;2023-07-09T07:03:10;101017.28;;;23.86;47.66
33153;BME280;19509;43.862;26.176;2023-07-09T07:05:36;101014.47;;;23.91;47.81
33153;BME280;19509;43.862;26.176;2023-07-09T07:08:03;101023.94;;;24.09;49.97
33153;BME280;19509;43.862;26.176;2023-07-09T07:10:29;101018.47;;;24.04;47.68
33153;BME280;19509;43.862;26.176;2023-07-09T07:12:55;101015.78;;;23.99;49.38
33153;BME280;19509;43.862;26.176;2023-07-09T07:15:22;101008.59;;;24.03;50.19
33153;BME280;19509;43.862;26.176;2023-07-09T07:17:48;101010.75;;;24.06;49.53
33153;BME280;19509;43.862;26.176;2023-07-09T07:20:14;101008.69;;;24.22;51.18
33153;BME280;19509;43.862;26.176;2023-07-09T07:22:40;101003.94;;;24.27;50.36
33153;BME280;19509;43.862;26.176;2023-07-09T07:25:07;100991.69;;;24.39;49.75
33153;BME280;19509;43.862;26.176;2023-07-09T07:27:33;101008.81;;;24.60;50.14
33153;BME280;19509;43.862;26.176;2023-07-09T07:29:59;101000.22;;;24.66;49.79
33153;BME280;19509;43.862;26.176;2023-07-09T07:32:25;100999.72;;;24.83;49.43
33153;BME280;19509;43.862;26.176;2023-07-09T07:34:51;101006.94;;;24.98;49.50
33153;BME280;19509;43.862;26.176;2023-07-09T07:37:18;100999.16;;;25.24;47.22
33153;BME280;19509;43.862;26.176;2023-07-09T07:39:48;100998.00;;;25.06;44.10
33153;BME280;19509;43.862;26.176;2023-07-09T07:42:14;101001.28;;;25.08;43.81
33153;BME280;19509;43.862;26.176;2023-07-09T07:44:39;100986.47;;;25.23;45.65
33153;BME280;19509;43.862;26.176;2023-07-09T07:47:05;100995.88;;;25.22;45.32
33153;BME280;19509;43.862;26.176;2023-07-09T07:49:31;100986.75;;;25.40;46.22
33153;BME280;19509;43.862;26.176;2023-07-09T07:51:57;100987.53;;;25.60;45.56
33153;BME280;19509;43.862;26.176;2023-07-09T07:54:23;100993.59;;;25.62;41.92
33153;BME280;19509;43.862;26.176;2023-07-09T07:56:48;100982.34;;;25.58;43.25
33153;BME280;19509;43.862;26.176;2023-07-09T07:59:14;100987.09;;;25.71;39.67
33153;BME280;19509;43.862;26.176;2023-07-09T08:01:40;100975.97;;;25.77;39.48
33153;BME280;19509;43.862;26.176;2023-07-09T08:04:06;100974.38;;;25.89;41.31
33153;BME280;19509;43.862;26.176;2023-07-09T08:06:31;100970.41;;;25.95;41.26
33153;BME280;19509;43.862;26.176;2023-07-09T08:08:58;100975.53;;;26.02;40.56
33153;BME280;19509;43.862;26.176;2023-07-09T08:11:24;100986.19;;;26.23;40.17
33153;BME280;19509;43.862;26.176;2023-07-09T08:13:50;100977.56;;;26.10;39.07
33153;BME280;19509;43.862;26.176;2023-07-09T08:16:16;100968.47;;;25.96;37.85
33153;BME280;19509;43.862;26.176;2023-07-09T08:18:42;100953.28;;;26.12;38.87
33153;BME280;19509;43.862;26.176;2023-07-09T08:21:07;100969.50;;;26.41;36.49
33153;BME280;19509;43.862;26.176;2023-07-09T08:23:34;100961.03;;;26.24;37.17
33153;BME280;19509;43.862;26.176;2023-07-09T08:26:02;100955.91;;;26.31;37.07
33153;BME280;19509;43.862;26.176;2023-07-09T08:28:29;100960.31;;;26.18;36.32
33153;BME280;19509;43.862;26.176;2023-07-09T08:30:55;100954.78;;;26.18;37.12
33153;BME280;19509;43.862;26.176;2023-07-09T08:33:22;100960.22;;;26.10;36.00
33153;BME280;19509;43.862;26.176;2023-07-09T08:35:52;100958.28;;;26.24;37.30
33153;BME280;19509;43.862;26.176;2023-07-09T08:38:18;100959.41;;;26.37;36.80
33153;BME280;19509;43.862;26.176;2023-07-09T08:44:12;100957.66;;;26.55;36.70
33153;BME280;19509;43.862;26.176;2023-07-09T08:47:06;100969.00;;;26.67;36.37
33153;BME280;19509;43.862;26.176;2023-07-09T08:49:54;100958.66;;;26.59;35.74
33153;BME280;19509;43.862;26.176;2023-07-09T08:52:37;100960.25;;;26.87;36.03
33153;BME280;19509;43.862;26.176;2023-07-09T08:57:48;100962.41;;;26.91;35.14
33153;BME280;19509;43.862;26.176;2023-07-09T09:00:18;100968.03;;;26.85;34.72
33153;BME280;19509;43.862;26.176;2023-07-09T09:02:52;100960.19;;;27.15;35.70
33153;BME280;19509;43.862;26.176;2023-07-09T09:05:22;100953.00;;;27.28;34.51
33153;BME280;19509;43.862;26.176;2023-07-09T09:07:58;100968.44;;;27.29;34.42
33153;BME280;19509;43.862;26.176;2023-07-09T09:10:40;100961.50;;;27.40;33.24
33153;BME280;19509;43.862;26.176;2023-07-09T09:13:10;100968.44;;;27.29;32.46
33153;BME280;19509;43.862;26.176;2023-07-09T09:15:39;100978.16;;;27.26;32.24
33153;BME280;19509;43.862;26.176;2023-07-09T09:18:19;100979.91;;;27.22;32.95
33153;BME280;19509;43.862;26.176;2023-07-09T09:20:54;100967.09;;;27.26;33.42
33153;BME280;19509;43.862;26.176;2023-07-09T09:23:22;100965.78;;;27.24;33.71
33153;BME280;19509;43.862;26.176;2023-07-09T09:25:52;100969.63;;;27.59;32.70
33153;BME280;19509;43.862;26.176;2023-07-09T09:28:19;100960.66;;;27.85;35.34
33153;BME280;19509;43.862;26.176;2023-07-09T09:30:45;100961.91;;;28.01;32.73
33153;BME280;19509;43.862;26.176;2023-07-09T09:33:11;100963.56;;;28.11;31.21
33153;BME280;19509;43.862;26.176;2023-07-09T09:35:39;100958.59;;;27.90;31.09
33153;BME280;19509;43.862;26.176;2023-07-09T09:38:15;100950.31;;;27.99;29.78
33153;BME280;19509;43.862;26.176;2023-07-09T09:40:41;100947.38;;;27.95;32.52
33153;BME280;19509;43.862;26.176;2023-07-09T09:43:19;100954.34;;;28.33;31.80
33153;BME280;19509;43.862;26.176;2023-07-09T09:45:48;100956.88;;;28.03;30.47
33153;BME280;19509;43.862;26.176;2023-07-09T09:48:25;100948.97;;;28.27;30.92
33153;BME280;19509;43.862;26.176;2023-07-09T09:50:52;100951.47;;;28.46;31.02
33153;BME280;19509;43.862;26.176;2023-07-09T09:53:28;100947.72;;;28.42;30.96
33153;BME280;19509;43.862;26.176;2023-07-09T09:55:56;100946.78;;;28.56;31.28
33153;BME280;19509;43.862;26.176;2023-07-09T09:58:29;100967.84;;;28.25;33.18
33153;BME280;19509;43.862;26.176;2023-07-09T10:00:57;100966.16;;;28.16;30.80
33153;BME280;19509;43.862;26.176;2023-07-09T10:03:33;100956.44;;;28.18;30.51
33153;BME280;19509;43.862;26.176;2023-07-09T10:06:12;100963.63;;;28.19;32.21
33153;BME280;19509;43.862;26.176;2023-07-09T10:11:56;100945.91;;;28.38;30.29
33153;BME280;19509;43.862;26.176;2023-07-09T10:14:49;100947.63;;;28.65;30.84
33153;BME280;19509;43.862;26.176;2023-07-09T10:17:22;100940.25;;;28.43;29.72
33153;BME280;19509;43.862;26.176;2023-07-09T10:19:56;100938.31;;;28.52;29.31
33153;BME280;19509;43.862;26.176;2023-07-09T10:28:33;100935.94;;;28.28;30.21
33153;BME280;19509;43.862;26.176;2023-07-09T10:34:00;100923.72;;;29.12;30.35
33153;BME280;19509;43.862;26.176;2023-07-09T10:39:22;100925.63;;;28.51;31.43
33153;BME280;19509;43.862;26.176;2023-07-09T10:41:50;100932.16;;;28.64;31.64
33153;BME280;19509;43.862;26.176;2023-07-09T10:44:20;100918.31;;;28.72;30.01
33153;BME280;19509;43.862;26.176;2023-07-09T10:46:55;100927.47;;;28.24;29.72
33153;BME280;19509;43.862;26.176;2023-07-09T10:49:26;100923.69;;;28.60;30.45
33153;BME280;19509;43.862;26.176;2023-07-09T10:54:36;100911.75;;;29.46;29.50
33153;BME280;19509;43.862;26.176;2023-07-09T10:57:11;100912.75;;;29.33;29.63
33153;BME280;19509;43.862;26.176;2023-07-09T10:59:40;100922.53;;;29.31;27.78
33153;BME280;19509;43.862;26.176;2023-07-09T11:02:17;100918.63;;;28.97;28.21
33153;BME280;19509;43.862;26.176;2023-07-09T11:04:48;100921.41;;;29.23;27.94
33153;BME280;19509;43.862;26.176;2023-07-09T11:07:17;100912.91;;;29.37;28.62
33153;BME280;19509;43.862;26.176;2023-07-09T11:09:47;100908.38;;;28.89;27.91
33153;BME280;19509;43.862;26.176;2023-07-09T11:12:34;100906.56;;;29.36;27.47
33153;BME280;19509;43.862;26.176;2023-07-09T11:15:09;100908.38;;;29.32;27.04
33153;BME280;19509;43.862;26.176;2023-07-09T11:17:39;100897.53;;;29.57;28.29
33153;BME280;19509;43.862;26.176;2023-07-09T11:20:21;100893.81;;;29.44;29.70
33153;BME280;19509;43.862;26.176;2023-07-09T11:23:03;100901.81;;;29.37;28.31
33153;BME280;19509;43.862;26.176;2023-07-09T11:28:38;100902.31;;;29.94;30.67
33153;BME280;19509;43.862;26.176;2023-07-09T11:31:16;100903.84;;;30.22;28.21
33153;BME280;19509;43.862;26.176;2023-07-09T11:33:56;100890.09;;;30.25;28.92
33153;BME280;19509;43.862;26.176;2023-07-09T11:36:27;100890.09;;;29.40;27.66
33153;BME280;19509;43.862;26.176;2023-07-09T11:38:53;100896.06;;;29.68;30.21
33153;BME280;19509;43.862;26.176;2023-07-09T11:41:41;100889.47;;;29.81;29.14
33153;BME280;19509;43.862;26.176;2023-07-09T11:49:52;100890.59;;;30.27;27.49
33153;BME280;19509;43.862;26.176;2023-07-09T11:52:43;100888.47;;;30.24;28.40
33153;BME280;19509;43.862;26.176;2023-07-09T11:58:04;100886.38;;;30.12;28.64
33153;BME280;19509;43.862;26.176;2023-07-09T12:00:37;100889.59;;;29.93;28.26
33153;BME280;19509;43.862;26.176;2023-07-09T12:03:05;100885.16;;;29.63;28.25
33153;BME280;19509;43.862;26.176;2023-07-09T12:05:31;100885.34;;;29.96;28.26
33153;BME280;19509;43.862;26.176;2023-07-09T12:07:58;100879.59;;;30.01;26.38
33153;BME280;19509;43.862;26.176;2023-07-09T12:10:27;100874.28;;;30.17;26.98
33153;BME280;19509;43.862;26.176;2023-07-09T12:12:58;100874.59;;;30.15;25.95
33153;BME280;19509;43.862;26.176;2023-07-09T12:15:28;100871.88;;;30.36;28.30
33153;BME280;19509;43.862;26.176;2023-07-09T12:17:57;100870.53;;;30.22;27.16
33153;BME280;19509;43.862;26.176;2023-07-09T12:20:23;100863.81;;;30.23;26.75
33153;BME280;19509;43.862;26.176;2023-07-09T12:22:49;100856.25;;;30.32;27.23
33153;BME280;19509;43.862;26.176;2023-07-09T12:25:33;100864.66;;;30.44;28.12
33153;BME280;19509;43.862;26.176;2023-07-09T12:27:58;100862.63;;;30.53;27.77
33153;BME280;19509;43.862;26.176;2023-07-09T12:30:24;100865.81;;;30.64;28.40
33153;BME280;19509;43.862;26.176;2023-07-09T12:32:51;100867.16;;;30.58;29.26
33153;BME280;19509;43.862;26.176;2023-07-09T12:35:19;100859.84;;;30.32;27.08
33153;BME280;19509;43.862;26.176;2023-07-09T12:37:47;100860.72;;;30.24;27.95
33153;BME280;19509;43.862;26.176;2023-07-09T12:40:21;100851.31;;;30.08;25.82
33153;BME280;19509;43.862;26.176;2023-07-09T12:42:47;100846.69;;;29.44;26.97
33153;BME280;19509;43.862;26.176;2023-07-09T12:45:18;100852.47;;;30.07;29.79
33153;BME280;19509;43.862;26.176;2023-07-09T12:47:46;100843.41;;;30.48;27.14
33153;BME280;19509;43.862;26.176;2023-07-09T12:50:30;100843.38;;;30.27;29.20
33153;BME280;19509;43.862;26.176;2023-07-09T12:53:01;100844.41;;;30.85;29.26
33153;BME280;19509;43.862;26.176;2023-07-09T12:55:28;100837.19;;;31.39;27.84
33153;BME280;19509;43.862;26.176;2023-07-09T12:57:59;100832.78;;;31.50;25.30
33153;BME280;19509;43.862;26.176;2023-07-09T13:00:31;100833.84;;;31.24;28.29
33153;BME280;19509;43.862;26.176;2023-07-09T13:02:58;100840.47;;;30.66;27.85
33153;BME280;19509;43.862;26.176;2023-07-09T13:05:25;100840.25;;;30.71;27.92
33153;BME280;19509;43.862;26.176;2023-07-09T13:07:53;100834.69;;;30.71;27.78
33153;BME280;19509;43.862;26.176;2023-07-09T13:10:22;100836.75;;;30.40;28.65
33153;BME280;19509;43.862;26.176;2023-07-09T13:12:51;100829.16;;;30.29;28.46
33153;BME280;19509;43.862;26.176;2023-07-09T13:15:25;100820.78;;;30.37;28.32
33153;BME280;19509;43.862;26.176;2023-07-09T13:18:01;100840.34;;;30.41;28.37
33153;BME280;19509;43.862;26.176;2023-07-09T13:20:28;100822.41;;;30.38;30.18
33153;BME280;19509;43.862;26.176;2023-07-09T13:22:54;100815.22;;;30.58;27.00
33153;BME280;19509;43.862;26.176;2023-07-09T13:25:20;100814.66;;;30.86;28.50